Time;durP1;ratioP1;P1;durP2;ratioP2;P2;SDS_P1;SDS_P2;PMS_P1;PMS_P2;Temp;Humidity;BMP_temperature;BMP_pressure;BME280_temperature;BME280_humidity;BME280_pressure;Samples;Min_cycle;Max_cycle;Signal;HPM_P1;HPM_P2
2023/11/28 00:01:58;;;;;;;36.80;16.55;;;;;;;5.66;69.05;99485.69;5086884;27;100627;-78
2023/11/28 00:04:25;;;;;;;38.97;18.33;;;;;;;5.56;69.33;99474.69;5087026;27;96840;-80
2023/11/28 00:06:53;;;;;;;29.13;16.40;;;;;;;5.55;69.60;99480.84;5090336;27;99002;-79
2023/11/28 00:09:20;;;;;;;38.03;17.63;;;;;;;5.63;69.61;99480.56;5091865;27;99174;-75
2023/11/28 00:11:46;;;;;;;38.25;17.98;;;;;;;5.64;69.02;99470.03;5091173;27;100741;-75
2023/11/28 00:14:13;;;;;;;35.55;17.23;;;;;;;5.70;68.04;99469.81;5088548;27;96789;-80
2023/11/28 00:16:39;;;;;;;37.38;18.55;;;;;;;5.87;67.68;99462.22;5089356;27;100308;-79
2023/11/28 00:19:05;;;;;;;37.08;16.70;;;;;;;5.79;67.96;99468.63;5085903;27;98988;-80
2023/11/28 00:21:32;;;;;;;34.75;17.30;;;;;;;5.75;68.33;99464.41;5087832;27;98935;-79
2023/11/28 00:24:01;;;;;;;35.10;16.63;;;;;;;5.58;68.14;99468.47;5086533;27;96700;-80
2023/11/28 00:26:28;;;;;;;33.15;16.58;;;;;;;5.60;69.56;99463.19;5085780;27;96860;-79
2023/11/28 00:28:54;;;;;;;32.72;15.75;;;;;;;5.43;68.55;99461.16;5086858;27;98960;-79
2023/11/28 00:31:21;;;;;;;31.67;15.65;;;;;;;5.21;71.18;99465.41;5085288;27;99005;-80
2023/11/28 00:33:48;;;;;;;37.60;15.93;;;;;;;5.32;70.86;99459.81;5082171;27;97136;-78
2023/11/28 00:36:16;;;;;;;33.17;16.02;;;;;;;5.53;69.98;99459.06;5082305;27;97432;-80
2023/11/28 00:38:42;;;;;;;29.40;14.02;;;;;;;5.39;70.55;99458.69;5093041;27;98972;-80
2023/11/28 00:41:11;;;;;;;30.73;15.50;;;;;;;5.27;70.93;99461.72;5087281;27;98804;-79
2023/11/28 00:43:38;;;;;;;33.22;16.23;;;;;;;5.38;71.03;99463.06;5081869;27;97050;-79
2023/11/28 00:46:06;;;;;;;37.63;16.23;;;;;;;5.35;70.47;99459.72;5093335;27;97311;-80
2023/11/28 00:48:32;;;;;;;39.03;15.90;;;;;;;5.38;70.31;99463.06;5084312;27;99286;-80
2023/11/28 00:50:59;;;;;;;36.78;16.38;;;;;;;5.45;71.11;99458.47;5082897;27;98873;-78
2023/11/28 00:53:25;;;;;;;32.20;16.00;;;;;;;5.40;70.36;99463.88;5090942;27;96843;-78
2023/11/28 00:55:51;;;;;;;35.22;17.33;;;;;;;5.19;70.89;99462.00;5092338;27;96924;-78
2023/11/28 00:58:19;;;;;;;32.05;16.00;;;;;;;5.26;71.38;99476.59;5089443;27;97650;-78
2023/11/28 01:00:46;;;;;;;36.45;17.58;;;;;;;5.24;70.99;99467.09;5086093;27;98932;-78
2023/11/28 01:03:12;;;;;;;35.60;17.10;;;;;;;5.11;71.32;99470.13;5083386;27;96639;-78
2023/11/28 01:05:38;;;;;;;35.63;16.23;;;;;;;5.22;71.28;99467.13;5084035;27;96868;-78
2023/11/28 01:08:05;;;;;;;32.55;17.77;;;;;;;5.29;71.11;99471.25;5085640;27;98798;-78
2023/11/28 01:10:31;;;;;;;39.58;17.08;;;;;;;5.37;70.67;99466.63;5083522;27;99104;-78
2023/11/28 01:12:58;;;;;;;35.13;17.15;;;;;;;5.40;70.49;99465.63;5083844;27;98346;-76
2023/11/28 01:15:25;;;;;;;37.42;18.08;;;;;;;5.08;72.15;99464.97;5078615;27;97123;-77
2023/11/28 01:17:52;;;;;;;40.95;18.55;;;;;;;5.14;71.43;99464.78;5076524;27;97633;-77
2023/11/28 01:20:18;;;;;;;39.70;19.27;;;;;;;5.10;71.24;99464.94;5082529;27;98880;-78
2023/11/28 01:22:44;;;;;;;41.08;19.38;;;;;;;5.30;71.38;99469.50;5095321;27;96710;-77
2023/11/28 01:25:11;;;;;;;40.88;20.30;;;;;;;5.22;71.79;99464.53;5089822;27;96746;-78
2023/11/28 01:27:38;;;;;;;41.75;19.02;;;;;;;5.26;71.48;99467.88;5088384;27;98815;-77
2023/11/28 01:30:05;;;;;;;38.78;19.13;;;;;;;5.32;71.22;99465.03;5092320;27;99083;-77
2023/11/28 01:32:33;;;;;;;46.38;19.02;;;;;;;5.37;70.35;99458.75;5085991;27;96743;-78
2023/11/28 01:34:59;;;;;;;32.65;17.63;;;;;;;5.43;70.73;99462.94;5091278;27;96659;-80
2023/11/28 01:37:25;;;;;;;35.92;19.05;;;;;;;5.44;71.02;99467.25;5094712;27;97734;-80
2023/11/28 01:39:52;;;;;;;39.10;18.55;;;;;;;5.29;70.32;99457.31;5089589;27;97319;-79
2023/11/28 01:42:18;;;;;;;39.10;19.65;;;;;;;5.42;71.04;99448.97;5091578;27;96810;-81
2023/11/28 01:44:45;;;;;;;41.38;19.08;;;;;;;5.39;71.40;99454.31;5090324;27;97705;-79
2023/11/28 01:47:12;;;;;;;37.63;19.27;;;;;;;5.57;70.21;99445.81;5089767;27;99140;-79
2023/11/28 01:49:41;;;;;;;40.40;18.52;;;;;;;5.56;70.13;99445.88;5097600;27;97834;-79
2023/11/28 01:52:10;;;;;;;36.25;17.92;;;;;;;5.46;69.93;99449.69;5088806;27;97059;-79
2023/11/28 01:54:36;;;;;;;36.42;17.75;;;;;;;5.40;71.26;99455.16;5096515;27;97226;-79
2023/11/28 01:57:03;;;;;;;38.63;18.80;;;;;;;5.54;70.09;99445.91;5088273;27;101795;-80
2023/11/28 01:59:33;;;;;;;34.60;17.25;;;;;;;5.67;69.16;99443.72;5092276;27;97788;-81
2023/11/28 02:02:00;;;;;;;36.40;16.83;;;;;;;5.44;69.40;99447.16;5088610;27;96685;-78
2023/11/28 02:04:26;;;;;;;39.92;17.80;;;;;;;5.35;70.09;99450.09;5093138;27;96831;-77
2023/11/28 02:06:54;;;;;;;38.90;18.35;;;;;;;5.40;69.83;99450.78;5091648;27;99094;-78
2023/11/28 02:09:21;;;;;;;36.10;17.33;;;;;;;5.69;68.85;99447.13;5096945;27;98603;-78
2023/11/28 02:11:47;;;;;;;36.05;16.23;;;;;;;5.58;68.29;99447.50;5094810;27;96689;-79
2023/11/28 02:14:14;;;;;;;36.60;17.20;;;;;;;5.54;67.78;99450.28;5095418;27;98541;-77
2023/11/28 02:16:40;;;;;;;39.45;16.40;;;;;;;5.51;68.59;99450.44;5094175;27;102074;-78
2023/11/28 02:19:06;;;;;;;33.55;17.33;;;;;;;5.36;68.24;99446.56;5088522;27;97675;-78
2023/11/28 02:21:33;;;;;;;37.83;17.25;;;;;;;5.39;69.15;99448.22;5095429;27;96775;-78
2023/11/28 02:24:02;;;;;;;36.17;17.38;;;;;;;5.20;70.17;99445.38;5082860;27;96806;-79
2023/11/28 02:26:30;;;;;;;35.13;17.05;;;;;;;5.33;69.53;99448.41;5089566;27;99830;-78
2023/11/28 02:28:57;;;;;;;34.25;16.52;;;;;;;5.38;69.43;99454.38;5091085;27;98883;-77
2023/11/28 02:31:24;;;;;;;40.30;16.75;;;;;;;5.44;68.52;99446.31;5083275;27;96640;-78
2023/11/28 02:33:50;;;;;;;37.38;16.00;;;;;;;5.48;67.69;99440.03;5097789;27;97514;-78
2023/11/28 02:36:19;;;;;;;34.40;15.43;;;;;;;5.32;67.57;99444.09;5090069;27;98071;-79
2023/11/28 02:38:45;;;;;;;32.25;16.63;;;;;;;5.38;67.67;99441.28;5092032;27;98790;-79
2023/11/28 02:41:11;;;;;;;36.15;16.23;;;;;;;5.28;68.53;99440.72;5083976;27;97639;-78
2023/11/28 02:43:39;;;;;;;35.63;15.02;;;;;;;5.08;68.86;99438.78;5087763;27;97184;-79
2023/11/28 02:46:06;;;;;;;36.60;15.35;;;;;;;5.00;69.27;99451.28;5083858;27;98557;-75
2023/11/28 02:48:32;;;;;;;37.67;15.88;;;;;;;4.89;69.70;99448.19;5079630;27;101035;-75
2023/11/28 02:50:59;;;;;;;32.60;15.32;;;;;;;4.97;69.75;99445.31;5083696;27;96789;-76
2023/11/28 02:53:26;;;;;;;32.60;14.75;;;;;;;5.02;69.47;99443.38;5085530;27;97074;-72
2023/11/28 02:55:52;;;;;;;34.25;15.40;;;;;;;4.89;70.76;99442.94;5084953;27;100608;-71
2023/11/28 02:58:18;;;;;;;32.95;14.82;;;;;;;5.07;69.21;99438.84;5084632;27;97471;-71
2023/11/28 03:00:46;;;;;;;31.98;15.57;;;;;;;4.96;68.38;99439.22;5084285;27;96793;-72
2023/11/28 03:03:12;;;;;;;32.15;14.55;;;;;;;5.13;69.11;99430.78;5082983;27;96867;-75
2023/11/28 03:05:39;;;;;;;35.08;14.85;;;;;;;5.05;68.69;99431.06;5085452;27;98873;-75
2023/11/28 03:08:06;;;;;;;33.25;13.07;;;;;;;4.96;68.46;99433.97;5080719;27;98679;-74
2023/11/28 03:10:32;;;;;;;28.75;14.05;;;;;;;4.97;68.91;99433.06;5075103;27;97165;-74
2023/11/28 03:12:58;;;;;;;27.40;13.77;;;;;;;4.92;69.23;99429.75;5082665;27;97609;-74
2023/11/28 03:15:25;;;;;;;35.70;14.20;;;;;;;5.04;68.66;99428.50;5085432;27;100306;-75
2023/11/28 03:17:53;;;;;;;27.52;12.35;;;;;;;5.03;67.56;99417.16;5084734;27;99219;-76
2023/11/28 03:20:19;;;;;;;28.60;13.05;;;;;;;4.85;68.51;99430.88;5076187;27;96711;-74
2023/11/28 03:22:45;;;;;;;27.08;12.55;;;;;;;4.81;67.83;99432.72;5074643;27;98578;-73
2023/11/28 03:25:12;;;;;;;28.70;12.80;;;;;;;4.92;68.04;99424.53;5081944;27;101188;-74
2023/11/28 03:27:39;;;;;;;25.77;12.32;;;;;;;4.90;67.35;99428.94;5079687;27;99334;-74
2023/11/28 03:30:07;;;;;;;24.98;12.18;;;;;;;4.98;66.38;99421.69;5090610;27;97099;-74
2023/11/28 03:32:33;;;;;;;24.90;11.82;;;;;;;4.77;66.31;99428.50;5080814;27;96705;-74
2023/11/28 03:35:02;;;;;;;25.75;11.88;;;;;;;4.88;66.00;99430.75;5083865;27;99173;-75
2023/11/28 03:37:29;;;;;;;25.13;11.52;;;;;;;4.76;66.43;99429.41;5083015;27;98957;-74
2023/11/28 03:39:55;;;;;;;24.27;11.68;;;;;;;5.00;64.76;99429.47;5085124;27;97635;-74
2023/11/28 03:42:21;;;;;;;26.20;11.20;;;;;;;4.68;66.03;99426.16;5082287;27;96773;-74
2023/11/28 03:44:48;;;;;;;21.10;10.93;;;;;;;4.74;66.83;99438.19;5073581;27;98994;-74
2023/11/28 03:47:14;;;;;;;22.95;10.40;;;;;;;4.80;65.88;99430.13;5077893;27;97465;-74
2023/11/28 03:49:41;;;;;;;20.52;9.63;;;;;;;4.76;65.58;99431.16;5090548;27;96673;-74
2023/11/28 03:52:08;;;;;;;21.33;9.88;;;;;;;4.74;64.80;99430.34;5086593;27;96829;-74
2023/11/28 03:54:35;;;;;;;21.33;9.63;;;;;;;4.77;65.96;99438.97;5080904;27;98871;-74
2023/11/28 03:57:01;;;;;;;18.60;8.63;;;;;;;4.80;65.31;99435.38;5087453;27;99101;-74
2023/11/28 03:59:28;;;;;;;22.13;8.60;;;;;;;4.95;64.56;99429.66;5084208;27;96817;-74
2023/11/28 04:01:54;;;;;;;20.48;8.93;;;;;;;4.95;64.14;99440.13;5080391;27;97277;-74
2023/11/28 04:04:21;;;;;;;21.77;9.15;;;;;;;5.09;63.54;99439.66;5081270;27;99285;-73
2023/11/28 04:06:47;;;;;;;19.33;8.77;;;;;;;5.15;62.78;99442.06;5091307;27;98908;-74
2023/11/28 04:09:15;;;;;;;20.33;8.07;;;;;;;5.17;62.49;99429.78;5088297;27;96821;-73
2023/11/28 04:11:41;;;;;;;20.13;8.63;;;;;;;5.16;62.83;99435.91;5080917;27;97807;-73
2023/11/28 04:14:07;;;;;;;21.02;8.27;;;;;;;5.12;61.90;99435.16;5088760;27;98234;-73
2023/11/28 04:16:34;;;;;;;16.33;7.30;;;;;;;5.21;61.64;99440.09;5084707;27;99147;-73
2023/11/28 04:19:00;;;;;;;15.98;7.22;;;;;;;5.27;62.70;99433.78;5081365;27;96999;-73
2023/11/28 04:21:27;;;;;;;13.93;6.60;;;;;;;5.47;61.36;99443.56;5083018;27;96736;-73
2023/11/28 04:23:53;;;;;;;17.10;7.20;;;;;;;5.00;61.58;99439.94;5091736;27;99069;-73
2023/11/28 04:26:21;;;;;;;13.57;6.80;;;;;;;5.43;60.62;99434.13;5089261;27;98870;-73
2023/11/28 04:28:47;;;;;;;12.43;5.97;;;;;;;5.49;59.99;99440.00;5078921;27;97348;-73
2023/11/28 04:31:18;;;;;;;13.43;6.35;;;;;;;5.34;59.99;99445.75;5085128;27;96840;-75
2023/11/28 04:33:44;;;;;;;11.48;6.43;;;;;;;5.49;58.18;99440.00;5079256;27;102132;-74
2023/11/28 04:36:11;;;;;;;13.32;6.25;;;;;;;5.45;57.88;99453.22;5083754;27;99169;-74
2023/11/28 04:38:38;;;;;;;13.80;5.82;;;;;;;5.52;58.51;99446.88;5074479;27;100853;-75
2023/11/28 04:41:04;;;;;;;13.48;5.53;;;;;;;5.30;57.66;99451.16;5082895;27;97957;-73
2023/11/28 04:43:32;;;;;;;12.40;5.85;;;;;;;5.24;59.33;99448.75;5081686;27;98958;-75
2023/11/28 04:45:58;;;;;;;13.52;5.60;;;;;;;5.38;58.49;99451.75;5078534;27;99727;-75
2023/11/28 04:48:25;;;;;;;10.50;5.53;;;;;;;5.28;57.66;99447.72;5088302;27;98503;-75
2023/11/28 04:50:51;;;;;;;9.25;4.90;;;;;;;5.26;59.41;99450.41;5091112;27;96848;-74
2023/11/28 04:53:17;;;;;;;13.65;5.20;;;;;;;5.19;58.92;99447.13;5087539;27;100334;-75
2023/11/28 04:55:44;;;;;;;11.98;4.72;;;;;;;5.30;58.15;99444.16;5083147;27;100402;-74
2023/11/28 04:58:10;;;;;;;9.52;5.05;;;;;;;5.44;56.93;99446.31;5084387;27;96881;-74
2023/11/28 05:00:38;;;;;;;12.73;4.63;;;;;;;5.45;57.27;99453.22;5083875;27;97114;-73
2023/11/28 05:03:04;;;;;;;10.45;5.10;;;;;;;5.51;56.15;99447.81;5087567;27;98790;-73
2023/11/28 05:05:31;;;;;;;10.35;5.03;;;;;;;5.39;56.84;99454.31;5084795;27;98903;-73
2023/11/28 05:07:57;;;;;;;10.07;4.90;;;;;;;5.52;56.05;99442.47;5089820;27;97129;-74
2023/11/28 05:10:24;;;;;;;11.88;4.30;;;;;;;5.41;56.47;99449.03;5085406;27;98403;-74
2023/11/28 05:12:51;;;;;;;9.32;4.60;;;;;;;5.38;56.09;99454.38;5085136;27;101879;-75
2023/11/28 05:15:17;;;;;;;7.47;4.00;;;;;;;5.47;55.27;99457.53;5084428;27;98965;-74
2023/11/28 05:17:45;;;;;;;8.82;4.03;;;;;;;5.30;56.79;99465.13;5091501;27;96817;-74
2023/11/28 05:20:12;;;;;;;8.75;3.70;;;;;;;5.34;56.27;99468.47;5087176;27;97295;-74
2023/11/28 05:22:38;;;;;;;9.07;4.57;;;;;;;5.35;56.64;99464.94;5084853;27;98916;-73
2023/11/28 05:25:06;;;;;;;8.20;4.32;;;;;;;5.42;56.20;99456.84;5083889;27;99167;-74
2023/11/28 05:27:33;;;;;;;11.27;5.28;;;;;;;5.40;56.36;99470.88;5087765;27;96755;-74
2023/11/28 05:30:01;;;;;;;11.82;5.93;;;;;;;5.51;55.79;99466.16;5087083;27;97184;-75
2023/11/28 05:32:28;;;;;;;13.55;6.85;;;;;;;5.52;55.21;99473.06;5088883;27;99331;-74
2023/11/28 05:34:55;;;;;;;7.57;4.35;;;;;;;5.35;55.48;99473.66;5083654;27;98906;-75
2023/11/28 05:37:23;;;;;;;9.20;4.68;;;;;;;5.52;54.44;99470.44;5084576;27;96748;-74
2023/11/28 05:39:50;;;;;;;10.98;4.35;;;;;;;5.45;55.58;99480.28;5088342;27;99297;-74
2023/11/28 05:42:17;;;;;;;9.45;4.25;;;;;;;5.10;56.30;99473.66;5089885;27;98186;-74
2023/11/28 05:44:43;;;;;;;8.38;3.95;;;;;;;5.53;55.72;99487.88;5089598;27;99532;-73
2023/11/28 05:47:10;;;;;;;8.07;4.03;;;;;;;5.25;55.43;99481.91;5082907;27;97286;-73
2023/11/28 05:49:36;;;;;;;6.63;3.58;;;;;;;5.54;54.97;99484.38;5081329;27;96707;-73
2023/11/28 05:52:04;;;;;;;9.13;3.92;;;;;;;5.46;55.53;99491.63;5086604;27;97661;-76
2023/11/28 05:54:31;;;;;;;6.47;3.88;;;;;;;5.32;55.76;99494.72;5090092;27;99145;-74
2023/11/28 05:56:57;;;;;;;9.00;4.72;;;;;;;5.34;56.26;99495.53;5082361;27;97560;-74
2023/11/28 05:59:24;;;;;;;10.88;4.68;;;;;;;5.43;55.15;99502.22;5087965;27;96754;-72
2023/11/28 06:02:00;;;;;;;10.90;4.72;;;;;;;5.41;55.35;99504.03;5083763;27;101553;-72
2023/11/28 06:04:27;;;;;;;12.70;4.88;;;;;;;5.37;54.64;99508.53;5086840;27;98909;-73
2023/11/28 06:06:53;;;;;;;11.38;4.82;;;;;;;5.16;53.74;99510.09;5089230;27;96719;-73
2023/11/28 06:09:23;;;;;;;10.73;5.20;;;;;;;5.44;54.29;99510.03;5078920;27;96708;-72
2023/11/28 06:11:50;;;;;;;14.05;5.80;;;;;;;5.46;53.50;99512.59;5086048;27;98869;-72
2023/11/28 06:14:16;;;;;;;12.40;5.70;;;;;;;5.21;54.11;99517.81;5080217;27;98779;-72
2023/11/28 06:16:42;;;;;;;15.40;6.40;;;;;;;4.74;54.70;99511.47;5083146;27;96916;-72
2023/11/28 06:19:09;;;;;;;12.73;6.20;;;;;;;5.19;54.62;99515.22;5080340;27;96775;-73
2023/11/28 06:21:36;;;;;;;14.77;6.65;;;;;;;5.11;54.84;99522.50;5088649;27;98829;-73
2023/11/28 06:24:03;;;;;;;14.35;6.30;;;;;;;5.08;54.41;99517.34;5090554;27;98958;-73
2023/11/28 06:26:30;;;;;;;12.68;6.35;;;;;;;4.96;55.69;99528.22;5087125;27;96713;-73
2023/11/28 06:28:57;;;;;;;14.05;5.72;;;;;;;5.21;55.08;99528.28;5086441;27;96972;-73
2023/11/28 06:31:23;;;;;;;14.55;6.45;;;;;;;5.38;53.79;99533.78;5083913;27;99365;-73
2023/11/28 06:33:49;;;;;;;16.17;7.40;;;;;;;5.50;54.41;99533.41;5074100;27;97766;-75
2023/11/28 06:36:17;;;;;;;16.40;6.63;;;;;;;5.35;54.11;99541.78;5074835;27;98042;-75
2023/11/28 06:38:44;;;;;;;13.95;7.07;;;;;;;5.55;53.83;99546.34;5082692;27;100623;-75
2023/11/28 06:41:11;;;;;;;19.00;7.80;;;;;;;5.51;54.37;99550.00;5083733;27;97688;-75
2023/11/28 06:43:49;;;;;;;14.77;7.35;;;;;;;5.27;53.92;99548.16;5087420;27;98079;-75
2023/11/28 06:46:19;;;;;;;16.48;8.85;;;;;;;5.35;54.53;99551.41;5084328;27;97391;-75
2023/11/28 06:48:46;;;;;;;15.63;7.43;;;;;;;5.52;54.35;99551.69;5087802;27;97015;-75
2023/11/28 06:51:12;;;;;;;17.98;9.25;;;;;;;5.30;53.60;99551.56;5086216;27;98804;-76
2023/11/28 06:53:39;;;;;;;26.92;12.35;;;;;;;5.31;54.65;99560.28;5080641;27;98840;-76
2023/11/28 06:56:06;;;;;;;20.67;9.35;;;;;;;5.52;53.85;99567.41;5081963;27;97075;-76
2023/11/28 06:58:33;;;;;;;19.38;8.38;;;;;;;5.15;54.66;99563.38;5084759;27;96839;-75
2023/11/28 07:01:00;;;;;;;22.42;9.27;;;;;;;5.34;54.32;99562.78;5086369;27;98800;-72
2023/11/28 07:03:31;;;;;;;23.58;10.55;;;;;;;5.34;54.90;99565.41;5084464;27;99307;-73
2023/11/28 07:05:57;;;;;;;23.30;9.90;;;;;;;5.30;55.04;99569.03;5081603;27;96768;-75
2023/11/28 07:08:24;;;;;;;20.13;10.38;;;;;;;5.34;54.96;99568.00;5087042;27;96806;-75
2023/11/28 07:10:51;;;;;;;21.38;10.48;;;;;;;5.34;54.69;99584.59;5081621;27;99047;-75
2023/11/28 07:13:17;;;;;;;22.00;11.10;;;;;;;5.14;55.13;99581.75;5077230;27;99263;-75
2023/11/28 07:15:44;;;;;;;24.88;10.90;;;;;;;5.38;55.33;99582.75;5077209;27;96886;-75
2023/11/28 07:18:15;;;;;;;23.95;10.57;;;;;;;5.19;55.21;99585.06;5090963;27;96860;-74
2023/11/28 07:20:42;;;;;;;23.95;10.80;;;;;;;5.37;54.64;99591.50;5090265;27;99409;-74
2023/11/28 07:23:08;;;;;;;21.63;10.35;;;;;;;5.52;54.72;99578.72;5078088;27;100783;-74
2023/11/28 07:25:34;;;;;;;25.75;12.20;;;;;;;5.53;54.56;99590.06;5092104;27;96641;-74
2023/11/28 07:28:01;;;;;;;29.45;12.07;;;;;;;5.54;54.48;99595.28;5090333;27;96635;-74
2023/11/28 07:30:27;;;;;;;24.85;11.90;;;;;;;5.50;54.36;99593.69;5079419;27;98371;-74
2023/11/28 07:32:54;;;;;;;27.15;12.40;;;;;;;5.53;55.02;99592.69;5092770;27;98976;-75
2023/11/28 07:35:21;;;;;;;27.25;12.95;;;;;;;5.44;55.57;99606.13;5089899;27;96716;-75
2023/11/28 07:37:48;;;;;;;29.85;13.43;;;;;;;5.46;55.44;99596.44;5091994;27;98536;-75
2023/11/28 07:40:15;;;;;;;31.80;12.82;;;;;;;5.40;54.46;99602.72;5087336;27;101115;-75
2023/11/28 07:42:41;;;;;;;27.35;12.98;;;;;;;5.37;55.50;99599.38;5090478;27;97473;-74
2023/11/28 07:45:08;;;;;;;27.52;13.25;;;;;;;5.50;54.57;99608.53;5083080;27;96693;-74
2023/11/28 07:47:34;;;;;;;29.33;12.73;;;;;;;5.65;54.63;99613.25;5083614;27;96860;-74
2023/11/28 07:50:01;;;;;;;27.15;14.02;;;;;;;5.46;54.85;99614.75;5084309;27;98007;-74
2023/11/28 07:52:29;;;;;;;31.60;14.32;;;;;;;5.50;54.79;99626.88;5092655;27;99426;-74
2023/11/28 07:54:56;;;;;;;31.67;13.65;;;;;;;5.35;55.24;99625.59;5083763;27;99061;-76
2023/11/28 07:57:22;;;;;;;28.00;13.65;;;;;;;5.41;55.61;99627.16;5087123;27;96787;-75
2023/11/28 07:59:49;;;;;;;24.75;13.32;;;;;;;5.63;55.09;99624.72;5084543;27;97840;-74
2023/11/28 08:02:15;;;;;;;29.63;14.77;;;;;;;5.70;54.92;99634.94;5083283;27;99177;-74
2023/11/28 08:04:41;;;;;;;34.40;14.32;;;;;;;5.77;55.43;99631.22;5079637;27;97238;-75
2023/11/28 08:07:08;;;;;;;28.85;14.13;;;;;;;5.89;54.35;99643.06;5083919;27;96925;-74
2023/11/28 08:09:36;;;;;;;32.55;15.65;;;;;;;5.75;54.48;99643.50;5090785;27;99754;-74
2023/11/28 08:12:03;;;;;;;30.50;13.80;;;;;;;5.97;54.05;99647.13;5083240;27;98450;-75
2023/11/28 08:14:29;;;;;;;34.53;15.02;;;;;;;5.81;54.02;99645.91;5083987;27;100678;-74
2023/11/28 08:16:55;;;;;;;33.88;15.27;;;;;;;5.77;54.35;99644.31;5084802;27;96833;-74
2023/11/28 08:19:22;;;;;;;32.75;15.15;;;;;;;5.71;54.94;99654.97;5086125;27;99534;-75
2023/11/28 08:21:48;;;;;;;34.08;14.75;;;;;;;5.72;55.10;99651.44;5082196;27;100025;-74
2023/11/28 08:24:15;;;;;;;32.70;15.90;;;;;;;5.72;54.29;99656.69;5089810;27;98354;-75
2023/11/28 08:26:42;;;;;;;34.05;14.93;;;;;;;5.65;55.08;99652.56;5083404;27;96693;-75
2023/11/28 08:29:09;;;;;;;31.60;16.08;;;;;;;5.66;55.77;99659.53;5087044;27;100704;-76
2023/11/28 08:31:35;;;;;;;27.80;14.93;;;;;;;5.74;54.37;99657.50;5091288;27;97639;-76
2023/11/28 08:34:02;;;;;;;29.27;14.65;;;;;;;5.42;55.29;99653.31;5084682;27;96771;-76
2023/11/28 08:36:29;;;;;;;32.38;15.38;;;;;;;5.81;55.24;99655.53;5085222;27;96999;-73
2023/11/28 08:38:56;;;;;;;32.97;15.90;;;;;;;5.87;55.21;99661.47;5084205;27;99266;-73
2023/11/28 08:41:22;;;;;;;31.30;15.35;;;;;;;5.90;55.18;99661.38;5079143;27;100348;-73
2023/11/28 08:43:50;;;;;;;31.73;14.93;;;;;;;6.19;54.09;99664.75;5082121;27;97725;-73
2023/11/28 08:46:17;;;;;;;30.42;14.15;;;;;;;6.30;53.18;99662.63;5088232;27;97003;-73
2023/11/28 08:48:44;;;;;;;37.55;16.55;;;;;;;6.26;53.37;99663.63;5076052;27;100907;-73
2023/11/28 08:51:10;;;;;;;30.00;15.10;;;;;;;6.17;53.40;99667.44;5087685;27;97859;-75
2023/11/28 08:53:37;;;;;;;32.53;16.02;;;;;;;5.88;54.37;99671.06;5077159;27;97142;-73
2023/11/28 08:56:04;;;;;;;30.38;16.27;;;;;;;5.88;54.97;99668.44;5082280;27;97044;-76
2023/11/28 08:58:31;;;;;;;33.28;15.38;;;;;;;5.80;54.36;99673.03;5078664;27;101501;-75
2023/11/28 09:00:58;;;;;;;30.17;15.40;;;;;;;5.86;54.82;99675.44;5080260;27;99058;-76
2023/11/28 09:03:25;;;;;;;29.83;14.73;;;;;;;5.83;54.47;99677.34;5079936;27;97226;-75
2023/11/28 09:05:51;;;;;;;32.10;15.23;;;;;;;5.81;54.44;99687.88;5085142;27;96740;-75
2023/11/28 09:08:17;;;;;;;29.80;14.73;;;;;;;5.88;54.02;99686.78;5080682;27;99143;-75
2023/11/28 09:10:44;;;;;;;29.83;15.05;;;;;;;5.94;54.27;99693.59;5090772;27;98786;-75
2023/11/28 09:13:10;;;;;;;30.88;14.95;;;;;;;6.02;53.41;99694.19;5085579;27;98550;-75
2023/11/28 09:15:37;;;;;;;30.83;14.70;;;;;;;5.88;53.82;99692.03;5086830;27;97500;-71
2023/11/28 09:18:04;;;;;;;28.48;14.30;;;;;;;5.84;54.39;99693.00;5081934;27;97804;-72
2023/11/28 09:20:31;;;;;;;30.50;14.45;;;;;;;5.83;53.92;99690.44;5084445;27;98792;-75
2023/11/28 09:22:57;;;;;;;29.27;14.38;;;;;;;5.64;54.29;99705.91;5085352;27;97345;-75
2023/11/28 09:25:24;;;;;;;65.55;28.10;;;;;;;5.60;54.91;99704.28;5085111;27;96888;-76
2023/11/28 09:27:50;;;;;;;25.40;13.13;;;;;;;5.78;54.00;99698.44;5080770;27;99349;-77
2023/11/28 09:30:19;;;;;;;27.92;13.10;;;;;;;5.75;54.59;99703.78;5087648;27;98769;-76
2023/11/28 09:32:45;;;;;;;26.15;13.27;;;;;;;5.98;54.16;99703.06;5077124;27;96964;-76
2023/11/28 09:35:13;;;;;;;29.10;13.73;;;;;;;6.14;53.67;99700.78;5085820;27;97031;-75
2023/11/28 09:37:39;;;;;;;28.73;12.90;;;;;;;6.31;53.06;99704.53;5074630;27;98883;-76
2023/11/28 09:40:07;;;;;;;22.77;11.25;;;;;;;6.43;52.14;99695.41;5083336;27;98938;-76
2023/11/28 09:42:37;;;;;;;27.83;13.40;;;;;;;6.47;52.11;99697.00;5078916;27;97877;-77
2023/11/28 09:45:06;;;;;;;27.92;13.48;;;;;;;6.53;51.80;99702.03;5081541;27;97238;-76
2023/11/28 09:47:35;;;;;;;23.58;12.27;;;;;;;6.34;51.79;99703.59;5080503;27;99067;-74
2023/11/28 09:50:05;;;;;;;23.75;12.35;;;;;;;6.21;52.43;99707.53;5081294;27;98788;-75
2023/11/28 09:52:34;;;;;;;26.00;12.57;;;;;;;6.26;52.24;99706.47;5083869;27;100498;-75
2023/11/28 09:55:01;;;;;;;25.05;12.55;;;;;;;6.37;51.68;99706.09;5078907;27;97942;-75
2023/11/28 09:57:32;;;;;;;31.92;13.18;;;;;;;6.29;52.23;99705.53;5084124;27;101339;-75
2023/11/28 09:59:59;;;;;;;26.88;12.30;;;;;;;6.07;53.07;99705.38;5084530;27;99551;-75
2023/11/28 10:02:27;;;;;;;26.48;12.50;;;;;;;6.12;52.96;99707.84;5084013;27;98365;-75
2023/11/28 10:04:53;;;;;;;28.27;12.95;;;;;;;5.92;52.71;99706.75;5082997;27;98004;-75
2023/11/28 10:07:24;;;;;;;20.85;11.02;;;;;;;6.36;51.86;99702.63;5083237;27;100158;-75
2023/11/28 10:09:54;;;;;;;23.83;11.65;;;;;;;6.23;53.09;99701.34;5079037;27;99359;-74
2023/11/28 10:12:21;;;;;;;24.73;11.50;;;;;;;6.21;51.38;99705.78;5082742;27;96852;-77
2023/11/28 10:14:47;;;;;;;22.63;11.80;;;;;;;6.27;52.29;99712.56;5087859;27;98710;-75
2023/11/28 10:17:16;;;;;;;25.42;11.93;;;;;;;6.43;51.59;99708.53;5078485;27;99149;-76
2023/11/28 10:19:44;;;;;;;24.48;11.27;;;;;;;6.26;52.13;99710.84;5080217;27;98146;-76
2023/11/28 10:22:10;;;;;;;24.42;11.80;;;;;;;6.37;51.58;99713.97;5080877;27;99141;-74
2023/11/28 10:24:37;;;;;;;22.90;11.00;;;;;;;6.36;52.01;99707.88;5077356;27;97634;-75
2023/11/28 10:27:05;;;;;;;21.38;10.63;;;;;;;6.17;52.06;99704.16;5082596;27;99655;-75
2023/11/28 10:29:33;;;;;;;21.90;11.48;;;;;;;6.37;52.33;99713.97;5084084;27;98856;-75
2023/11/28 10:32:00;;;;;;;26.17;12.38;;;;;;;6.45;51.99;99716.31;5081732;27;97328;-75
2023/11/28 10:34:28;;;;;;;22.45;11.30;;;;;;;6.49;51.61;99717.94;5082675;27;98332;-76
2023/11/28 10:36:57;;;;;;;23.48;11.10;;;;;;;6.49;51.63;99724.06;5081373;27;98674;-76
2023/11/28 10:39:25;;;;;;;24.80;11.10;;;;;;;6.58;51.00;99722.84;5081665;27;103345;-76
2023/11/28 10:41:51;;;;;;;22.50;10.77;;;;;;;6.32;51.21;99727.25;5076069;27;98354;-76
2023/11/28 10:44:19;;;;;;;23.30;10.98;;;;;;;6.34;51.69;99732.44;5082461;27;97526;-76
2023/11/28 10:46:48;;;;;;;24.80;11.75;;;;;;;6.51;51.66;99731.84;5078724;27;98723;-76
2023/11/28 10:49:15;;;;;;;24.30;11.57;;;;;;;6.46;51.66;99733.78;5080077;27;97803;-78
2023/11/28 10:51:41;;;;;;;23.77;11.32;;;;;;;6.29;51.68;99731.75;5083450;27;97079;-78
2023/11/28 10:54:08;;;;;;;21.40;10.45;;;;;;;6.60;51.40;99734.16;5080834;27;96834;-78
2023/11/28 10:56:47;;;;;;;21.45;10.85;;;;;;;6.41;50.83;99731.34;5085325;27;99045;-79
2023/11/28 10:59:21;;;;;;;24.77;10.82;;;;;;;6.34;51.04;99737.69;5079116;27;100884;-78
2023/11/28 11:01:49;;;;;;;21.80;10.43;;;;;;;6.47;50.82;99736.38;5079776;27;96933;-78
2023/11/28 11:04:16;;;;;;;19.65;10.30;;;;;;;6.56;51.45;99736.06;5081984;27;97011;-79
2023/11/28 11:06:42;;;;;;;18.77;9.95;;;;;;;6.56;50.87;99738.69;5089107;27;99394;-78
2023/11/28 11:09:10;;;;;;;19.83;10.18;;;;;;;6.37;50.74;99732.31;5082082;27;98876;-79
2023/11/28 11:11:37;;;;;;;20.83;9.98;;;;;;;6.39;50.73;99733.13;5080101;27;96867;-78
2023/11/28 11:14:13;;;;;;;20.35;10.07;;;;;;;6.35;50.38;99739.41;5083741;27;96945;-78
2023/11/28 11:16:43;;;;;;;;;;;;;;;6.17;51.04;99733.00;5084194;27;99187;-78
2023/11/28 11:19:12;;;;;;;18.35;9.60;;;;;;;6.26;51.46;99737.94;5079821;27;98978;-78
2023/11/28 11:21:43;;;;;;;20.92;9.73;;;;;;;6.33;51.07;99738.59;5083119;27;97214;-77
2023/11/28 11:24:15;;;;;;;19.52;9.60;;;;;;;6.26;51.25;99737.09;5087059;27;98839;-78
2023/11/28 11:26:42;;;;;;;16.92;8.25;;;;;;;6.25;50.95;99733.59;5080092;27;99154;-78